^^
Saratoga-Weather Station Historical Data
Daily Summary for August 6, 2021 Units:  Both    English   Metric
Daily Weekly Monthly Yearly Custom
  High: Low: Average:
Temperature: 54.3 °F /  12.4 °C 49.1 °F /  9.5 °C 51.4 °F /  10.8 °C
Dew Point: 51.3 °F /  10.7 °C 47.3 °F /  8.5 °C 49.1 °F /  9.5 °C
Humidity: 95% 82% 92%
Wind Speed: 10.1mph /  16.3km/h - 2.5mph /  4km/h
Wind Gust: 14mph /  22.5km/h - -
Wind- - West
Pressure: 30.2 in /  1023.4 hPa 29.9 in /  1012.5 hPa -
Precipitation: 0.22 in /  5.6 mm    
Historical Graphs
 
 
Tabular Data for August 6, 2021
Time Temperature Dew Point Pressure Wind Wind Speed Wind Gust Humidity Rainfall Rate (Hourly) solar
00:04 51.1 °F /  10.6 °C 49.5 °F /  9.7 °C 29.9in /  1012.5hPa SSE 2.9mph /  4.7km/h 3mph /  4.8km/h 94% 0.01in /  0.2mm 0 W/m2
00:09 51.1 °F /  10.6 °C 49.5 °F /  9.7 °C 29.9in /  1012.5hPa West 2mph /  3.2km/h 3mph /  4.8km/h 94% 0.01in /  0.2mm 0 W/m2
00:14 51.1 °F /  10.6 °C 49.5 °F /  9.7 °C 29.9in /  1012.5hPa NNW 2mph /  3.2km/h 4mph /  6.4km/h 94% 0.01in /  0.2mm 0 W/m2
00:19 51.1 °F /  10.6 °C 49.1 °F /  9.5 °C 29.9in /  1012.5hPa NW 2mph /  3.2km/h 3mph /  4.8km/h 93% 0.01in /  0.2mm 0 W/m2
00:24 51.1 °F /  10.6 °C 49.1 °F /  9.5 °C 29.9in /  1012.5hPa NNW 2mph /  3.2km/h 2mph /  3.2km/h 93% 0.01in /  0.2mm 0 W/m2
00:29 50.9 °F /  10.5 °C 48.9 °F /  9.4 °C 29.9in /  1012.9hPa NW 2mph /  3.2km/h 2mph /  3.2km/h 93% 0.01in /  0.2mm 0 W/m2
00:34 50.7 °F /  10.4 °C 48.7 °F /  9.3 °C 29.9in /  1012.9hPa Calm   3mph /  4.8km/h 93% 0.01in /  0.2mm 0 W/m2
00:39 50.7 °F /  10.4 °C 48.7 °F /  9.3 °C 29.9in /  1012.9hPa West 0.9mph /  1.4km/h 4mph /  6.4km/h 93% 0in /  0.0mm 0 W/m2
00:44 50.7 °F /  10.4 °C 48.7 °F /  9.3 °C 29.9in /  1012.9hPa South 0.9mph /  1.4km/h 2mph /  3.2km/h 93% 0in /  0.0mm 0 W/m2
00:49 50.7 °F /  10.4 °C 48.7 °F /  9.3 °C 29.9in /  1012.9hPa NNW 2.9mph /  4.7km/h 3mph /  4.8km/h 93% 0in /  0.0mm 0 W/m2
00:54 50.7 °F /  10.4 °C 48.7 °F /  9.3 °C 29.9in /  1012.9hPa WNW 4.9mph /  7.9km/h 6mph /  9.7km/h 93% 0in /  0.0mm 0 W/m2
00:59 50.7 °F /  10.4 °C 48.7 °F /  9.3 °C 29.9in /  1012.9hPa Calm   3mph /  4.8km/h 93% 0in /  0.0mm 0 W/m2
01:04 50.7 °F /  10.4 °C 48.7 °F /  9.3 °C 29.9in /  1013.2hPa Calm   6mph /  9.7km/h 93% 0in /  0.0mm 0 W/m2
01:09 50.7 °F /  10.4 °C 48.6 °F /  9.2 °C 29.9in /  1013.2hPa SW 2.9mph /  4.7km/h 6mph /  9.7km/h 92% 0in /  0.0mm 0 W/m2
01:14 50.5 °F /  10.3 °C 48.6 °F /  9.2 °C 29.9in /  1013.2hPa Calm   2mph /  3.2km/h 93% 0in /  0.0mm 0 W/m2
01:19 50.4 °F /  10.2 °C 48.4 °F /  9.1 °C 29.9in /  1013.2hPa ENE 2mph /  3.2km/h 3mph /  4.8km/h 93% 0in /  0.0mm 0 W/m2
01:24 50.4 °F /  10.2 °C 48.2 °F /  9 °C 29.9in /  1013.2hPa NNW 0.9mph /  1.4km/h 3mph /  4.8km/h 92% 0in /  0.0mm 0 W/m2
01:29 50.2 °F /  10.1 °C 48.2 °F /  9 °C 29.9in /  1013.2hPa SSE 2mph /  3.2km/h 3mph /  4.8km/h 93% 0in /  0.0mm 0 W/m2
01:34 50 °F /  10 °C 48 °F /  8.9 °C 29.9in /  1013.5hPa Calm     93% 0in /  0.0mm 0 W/m2
01:39 49.8 °F /  9.9 °C 47.8 °F /  8.8 °C 29.9in /  1013.5hPa ESE 0.9mph /  1.4km/h 3mph /  4.8km/h 93% 0in /  0.0mm 0 W/m2
01:44 49.8 °F /  9.9 °C 47.8 °F /  8.8 °C 29.9in /  1013.5hPa SE 4mph /  6.4km/h 7mph /  11.3km/h 93% 0in /  0.0mm 0 W/m2
01:49 49.8 °F /  9.9 °C 47.8 °F /  8.8 °C 29.9in /  1013.5hPa NW 2mph /  3.2km/h 2mph /  3.2km/h 93% 0in /  0.0mm 0 W/m2
01:54 49.8 °F /  9.9 °C 47.8 °F /  8.8 °C 29.9in /  1013.5hPa ESE 0.9mph /  1.4km/h 1mph /  1.6km/h 93% 0in /  0.0mm 0 W/m2
01:59 49.6 °F /  9.8 °C 47.7 °F /  8.7 °C 29.9in /  1013.5hPa SE 2mph /  3.2km/h 2mph /  3.2km/h 93% 0in /  0.0mm 0 W/m2
02:04 49.6 °F /  9.8 °C 47.7 °F /  8.7 °C 29.9in /  1013.5hPa Calm   6mph /  9.7km/h 93% 0in /  0.0mm 0 W/m2
02:09 49.6 °F /  9.8 °C 47.7 °F /  8.7 °C 29.9in /  1013.5hPa ENE 0.9mph /  1.4km/h 2mph /  3.2km/h 93% 0in /  0.0mm 0 W/m2
02:14 49.6 °F /  9.8 °C 47.7 °F /  8.7 °C 29.9in /  1013.5hPa SE 0.9mph /  1.4km/h 6mph /  9.7km/h 93% 0in /  0.0mm 0 W/m2
02:19 49.5 °F /  9.7 °C 47.5 °F /  8.6 °C 29.9in /  1013.5hPa WNW 0.9mph /  1.4km/h 3mph /  4.8km/h 93% 0in /  0.0mm 0 W/m2
02:24 49.5 °F /  9.7 °C 47.5 °F /  8.6 °C 29.9in /  1013.5hPa East 2mph /  3.2km/h 3mph /  4.8km/h 93% 0in /  0.0mm 0 W/m2
02:29 49.3 °F /  9.6 °C 47.3 °F /  8.5 °C 29.9in /  1013.5hPa Calm   4mph /  6.4km/h 93% 0in /  0.0mm 0 W/m2
02:34 49.3 °F /  9.6 °C 47.3 °F /  8.5 °C 29.9in /  1013.5hPa ESE 6mph /  9.7km/h 6mph /  9.7km/h 93% 0in /  0.0mm 0 W/m2
02:39 49.3 °F /  9.6 °C 47.7 °F /  8.7 °C 29.9in /  1013.9hPa SW 2mph /  3.2km/h 2mph /  3.2km/h 94% 0in /  0.0mm 0 W/m2
02:44 49.1 °F /  9.5 °C 47.5 °F /  8.6 °C 29.9in /  1013.9hPa Calm   5mph /  8km/h 94% 0in /  0.0mm 0 W/m2
02:49 49.1 °F /  9.5 °C 47.5 °F /  8.6 °C 29.9in /  1013.9hPa SW 0.9mph /  1.4km/h 3mph /  4.8km/h 94% 0in /  0.0mm 0 W/m2
02:54 49.1 °F /  9.5 °C 47.5 °F /  8.6 °C 29.9in /  1013.9hPa ENE 0.9mph /  1.4km/h 5mph /  8km/h 94% 0in /  0.0mm 0 W/m2
02:59 49.1 °F /  9.5 °C 47.5 °F /  8.6 °C 29.9in /  1013.9hPa Calm   2mph /  3.2km/h 94% 0in /  0.0mm 0 W/m2
03:04 49.1 °F /  9.5 °C 47.5 °F /  8.6 °C 29.9in /  1013.9hPa East 0.9mph /  1.4km/h 2mph /  3.2km/h 94% 0in /  0.0mm 0 W/m2
03:09 49.1 °F /  9.5 °C 47.5 °F /  8.6 °C 29.9in /  1013.9hPa WNW 2.9mph /  4.7km/h 4mph /  6.4km/h 94% 0in /  0.0mm 0 W/m2
03:14 49.1 °F /  9.5 °C 47.5 °F /  8.6 °C 29.9in /  1013.9hPa NW 2mph /  3.2km/h 2mph /  3.2km/h 94% 0in /  0.0mm 0 W/m2
03:19 49.3 °F /  9.6 °C 47.7 °F /  8.7 °C 29.9in /  1013.9hPa SSW 4mph /  6.4km/h 6mph /  9.7km/h 94% 0in /  0.0mm 0 W/m2
03:24 49.3 °F /  9.6 °C 47.7 °F /  8.7 °C 29.9in /  1013.9hPa NNW 2.9mph /  4.7km/h 5mph /  8km/h 94% 0in /  0.0mm 0 W/m2
03:29 49.5 °F /  9.7 °C 47.8 °F /  8.8 °C 30in /  1014.2hPa Calm   3mph /  4.8km/h 94% 0in /  0.0mm 0 W/m2
03:34 49.5 °F /  9.7 °C 47.8 °F /  8.8 °C 30in /  1014.2hPa North 2mph /  3.2km/h 5mph /  8km/h 94% 0in /  0.0mm 0 W/m2
03:39 49.5 °F /  9.7 °C 47.8 °F /  8.8 °C 30in /  1014.2hPa NNW 2mph /  3.2km/h 2mph /  3.2km/h 94% 0in /  0.0mm 0 W/m2
03:44 49.6 °F /  9.8 °C 48 °F /  8.9 °C 30in /  1014.2hPa WSW 2.9mph /  4.7km/h 4mph /  6.4km/h 94% 0in /  0.0mm 0 W/m2
03:49 49.6 °F /  9.8 °C 48 °F /  8.9 °C 30in /  1014.2hPa Calm     94% 0in /  0.0mm 0 W/m2
03:54 49.8 °F /  9.9 °C 48.2 °F /  9 °C 30in /  1014.2hPa SW 0.9mph /  1.4km/h 6mph /  9.7km/h 94% 0in /  0.0mm 0 W/m2
03:59 50 °F /  10 °C 48.4 °F /  9.1 °C 30in /  1014.2hPa NNW 0.9mph /  1.4km/h 2mph /  3.2km/h 94% 0in /  0.0mm 0 W/m2
04:04 50.2 °F /  10.1 °C 48.6 °F /  9.2 °C 30in /  1014.2hPa NE 0.9mph /  1.4km/h 2mph /  3.2km/h 94% 0in /  0.0mm 0 W/m2
04:09 50.2 °F /  10.1 °C 48.6 °F /  9.2 °C 30in /  1014.2hPa NNW 2mph /  3.2km/h 3mph /  4.8km/h 94% 0in /  0.0mm 0 W/m2
04:14 50.2 °F /  10.1 °C 48.2 °F /  9 °C 30in /  1014.2hPa Calm   9mph /  14.5km/h 93% 0in /  0.0mm 0 W/m2
04:19 50.2 °F /  10.1 °C 48.2 °F /  9 °C 30in /  1014.2hPa Calm   2mph /  3.2km/h 93% 0in /  0.0mm 0 W/m2
04:24 50.2 °F /  10.1 °C 48.2 °F /  9 °C 30in /  1014.2hPa SW 0.9mph /  1.4km/h 9mph /  14.5km/h 93% 0in /  0.0mm 0 W/m2
04:29 50.4 °F /  10.2 °C 48.4 °F /  9.1 °C 30in /  1014.6hPa ENE 0.9mph /  1.4km/h 3mph /  4.8km/h 93% 0in /  0.0mm 0 W/m2
04:34 50.4 °F /  10.2 °C 48.4 °F /  9.1 °C 30in /  1014.6hPa NW 2.9mph /  4.7km/h 7mph /  11.3km/h 93% 0in /  0.0mm 0 W/m2
04:39 50.4 °F /  10.2 °C 48.4 °F /  9.1 °C 30in /  1014.6hPa Calm     93% 0in /  0.0mm 0 W/m2
04:44 50.4 °F /  10.2 °C 48.4 °F /  9.1 °C 30in /  1014.6hPa NNW 2mph /  3.2km/h 3mph /  4.8km/h 93% 0in /  0.0mm 0 W/m2
04:49 50.4 °F /  10.2 °C 48.4 °F /  9.1 °C 30in /  1014.6hPa WSW 2.9mph /  4.7km/h 3mph /  4.8km/h 93% 0in /  0.0mm 0 W/m2
04:54 50.4 °F /  10.2 °C 48.4 °F /  9.1 °C 30in /  1014.6hPa WNW 0.9mph /  1.4km/h 4mph /  6.4km/h 93% 0in /  0.0mm 0 W/m2
04:59 50.4 °F /  10.2 °C 48.4 °F /  9.1 °C 30in /  1014.6hPa NW 0.9mph /  1.4km/h 3mph /  4.8km/h 93% 0in /  0.0mm 0 W/m2
05:04 50.4 °F /  10.2 °C 48.4 °F /  9.1 °C 30in /  1014.6hPa West 2mph /  3.2km/h 5mph /  8km/h 93% 0in /  0.0mm 0 W/m2
05:09 50.4 °F /  10.2 °C 48.4 °F /  9.1 °C 30in /  1014.9hPa NNW 0.9mph /  1.4km/h 3mph /  4.8km/h 93% 0in /  0.0mm 0 W/m2
05:14 50.4 °F /  10.2 °C 48.4 °F /  9.1 °C 30in /  1014.9hPa West 0.9mph /  1.4km/h 5mph /  8km/h 93% 0in /  0.0mm 0 W/m2
05:19 50.4 °F /  10.2 °C 48.4 °F /  9.1 °C 30in /  1014.9hPa North 2mph /  3.2km/h 4mph /  6.4km/h 93% 0in /  0.0mm 0 W/m2
05:24 50.4 °F /  10.2 °C 48.4 °F /  9.1 °C 30in /  1014.9hPa WNW 0.9mph /  1.4km/h 4mph /  6.4km/h 93% 0in /  0.0mm 0 W/m2
05:29 50.4 °F /  10.2 °C 48.4 °F /  9.1 °C 30in /  1014.9hPa WSW 4mph /  6.4km/h 5mph /  8km/h 93% 0in /  0.0mm 0 W/m2
05:34 50.2 °F /  10.1 °C 48 °F /  8.9 °C 30in /  1014.9hPa NNW 2mph /  3.2km/h 3mph /  4.8km/h 92% 0in /  0.0mm 0 W/m2
05:39 50.2 °F /  10.1 °C 48 °F /  8.9 °C 30in /  1014.9hPa Calm   3mph /  4.8km/h 92% 0in /  0.0mm 0 W/m2
05:44 50.2 °F /  10.1 °C 48.2 °F /  9 °C 30in /  1015.2hPa NW 2.9mph /  4.7km/h 3mph /  4.8km/h 93% 0in /  0.0mm 0 W/m2
05:49 50.2 °F /  10.1 °C 48.2 °F /  9 °C 30in /  1015.2hPa Calm   3mph /  4.8km/h 93% 0in /  0.0mm 0 W/m2
05:54 50.2 °F /  10.1 °C 48 °F /  8.9 °C 30in /  1015.2hPa Calm   4mph /  6.4km/h 92% 0in /  0.0mm 0 W/m2
05:59 50.2 °F /  10.1 °C 48 °F /  8.9 °C 30in /  1015.2hPa WNW 0.9mph /  1.4km/h 6mph /  9.7km/h 92% 0in /  0.0mm 0 W/m2
06:04 50.2 °F /  10.1 °C 48 °F /  8.9 °C 30in /  1015.2hPa NE 2mph /  3.2km/h 4mph /  6.4km/h 92% 0in /  0.0mm 0 W/m2
06:09 50.2 °F /  10.1 °C 48 °F /  8.9 °C 30in /  1015.2hPa Calm   3mph /  4.8km/h 92% 0in /  0.0mm 0 W/m2
06:14 50.2 °F /  10.1 °C 48 °F /  8.9 °C 30in /  1015.2hPa WNW 2mph /  3.2km/h 4mph /  6.4km/h 92% 0in /  0.0mm 0 W/m2
06:19 50.2 °F /  10.1 °C 48 °F /  8.9 °C 30in /  1015.2hPa WSW 2mph /  3.2km/h 5mph /  8km/h 92% 0in /  0.0mm 0 W/m2
06:24 50 °F /  10 °C 48 °F /  8.9 °C 30in /  1015.2hPa NW 0.9mph /  1.4km/h 7mph /  11.3km/h 93% 0in /  0.0mm 0 W/m2
06:29 50 °F /  10 °C 48 °F /  8.9 °C 30in /  1015.6hPa WNW 2.9mph /  4.7km/h 3mph /  4.8km/h 93% 0in /  0.0mm 0 W/m2
06:34 50 °F /  10 °C 48 °F /  8.9 °C 30in /  1015.6hPa WNW 0.9mph /  1.4km/h 2mph /  3.2km/h 93% 0in /  0.0mm 0 W/m2
06:39 50 °F /  10 °C 48 °F /  8.9 °C 30in /  1015.6hPa NNW 0.9mph /  1.4km/h 2mph /  3.2km/h 93% 0in /  0.0mm 0 W/m2
06:44 49.8 °F /  9.9 °C 47.8 °F /  8.8 °C 30in /  1015.6hPa Calm   4mph /  6.4km/h 93% 0in /  0.0mm 0 W/m2
06:49 49.8 °F /  9.9 °C 47.8 °F /  8.8 °C 30in /  1015.6hPa ENE 2mph /  3.2km/h 5mph /  8km/h 93% 0in /  0.0mm 0 W/m2
06:54 49.8 °F /  9.9 °C 47.8 °F /  8.8 °C 30in /  1015.2hPa Calm   3mph /  4.8km/h 93% 0.01in /  0.2mm 0 W/m2
06:59 49.8 °F /  9.9 °C 47.8 °F /  8.8 °C 30in /  1015.6hPa West 2mph /  3.2km/h 8mph /  12.9km/h 93% 0.01in /  0.2mm 0 W/m2
07:04 49.6 °F /  9.8 °C 47.7 °F /  8.7 °C 30in /  1015.6hPa SE 2mph /  3.2km/h 2mph /  3.2km/h 93% 0.01in /  0.2mm 0 W/m2
07:09 49.6 °F /  9.8 °C 47.7 °F /  8.7 °C 30in /  1015.6hPa Calm   7mph /  11.3km/h 93% 0.01in /  0.2mm 0 W/m2
07:14 49.6 °F /  9.8 °C 47.7 °F /  8.7 °C 30in /  1015.6hPa West 0.9mph /  1.4km/h 4mph /  6.4km/h 93% 0.01in /  0.2mm 0 W/m2
07:19 49.6 °F /  9.8 °C 47.7 °F /  8.7 °C 30in /  1015.6hPa WNW 2mph /  3.2km/h 5mph /  8km/h 93% 0.01in /  0.2mm 0 W/m2
07:24 49.6 °F /  9.8 °C 47.7 °F /  8.7 °C 30in /  1015.9hPa West 2mph /  3.2km/h 3mph /  4.8km/h 93% 0.01in /  0.2mm 0 W/m2
07:29 49.6 °F /  9.8 °C 47.7 °F /  8.7 °C 30in /  1015.9hPa Calm   3mph /  4.8km/h 93% 0.01in /  0.2mm 0 W/m2
07:34 49.6 °F /  9.8 °C 47.7 °F /  8.7 °C 30in /  1015.9hPa Calm   4mph /  6.4km/h 93% 0.01in /  0.2mm 0 W/m2
07:39 49.6 °F /  9.8 °C 47.7 °F /  8.7 °C 30in /  1016.3hPa WSW 4.9mph /  7.9km/h 5mph /  8km/h 93% 0.01in /  0.2mm 0 W/m2
07:44 49.6 °F /  9.8 °C 47.7 °F /  8.7 °C 30in /  1016.3hPa NW 2mph /  3.2km/h 5mph /  8km/h 93% 0.01in /  0.2mm 0 W/m2
07:49 49.6 °F /  9.8 °C 47.7 °F /  8.7 °C 30in /  1016.3hPa NW 4mph /  6.4km/h 6mph /  9.7km/h 93% 0.01in /  0.2mm 5 W/m2
07:54 49.6 °F /  9.8 °C 47.7 °F /  8.7 °C 30in /  1016.3hPa West 2.9mph /  4.7km/h 12mph /  19.3km/h 93% 0in /  0.0mm 7 W/m2
07:59 49.6 °F /  9.8 °C 47.7 °F /  8.7 °C 30in /  1016.3hPa NW 4mph /  6.4km/h 5mph /  8km/h 93% 0in /  0.0mm 7 W/m2
08:04 49.6 °F /  9.8 °C 47.7 °F /  8.7 °C 30in /  1016.3hPa WNW 2.9mph /  4.7km/h 12mph /  19.3km/h 93% 0in /  0.0mm 12 W/m2
08:09 49.8 °F /  9.9 °C 47.7 °F /  8.7 °C 30in /  1016.3hPa WNW 2mph /  3.2km/h 4mph /  6.4km/h 92% 0in /  0.0mm 25 W/m2
08:14 49.8 °F /  9.9 °C 47.7 °F /  8.7 °C 30in /  1016.3hPa WNW 2mph /  3.2km/h 8mph /  12.9km/h 92% 0in /  0.0mm 21 W/m2
08:19 49.8 °F /  9.9 °C 47.8 °F /  8.8 °C 30in /  1016.3hPa NNW 2.9mph /  4.7km/h 6mph /  9.7km/h 93% 0in /  0.0mm 32 W/m2
08:24 49.8 °F /  9.9 °C 47.7 °F /  8.7 °C 30in /  1016.6hPa West 6mph /  9.7km/h 10mph /  16.1km/h 92% 0in /  0.0mm 30 W/m2
08:29 49.8 °F /  9.9 °C 47.8 °F /  8.8 °C 30in /  1016.6hPa WNW 2mph /  3.2km/h 3mph /  4.8km/h 93% 0in /  0.0mm 33 W/m2
08:34 49.8 °F /  9.9 °C 47.7 °F /  8.7 °C 30in /  1016.6hPa WNW 4.9mph /  7.9km/h 8mph /  12.9km/h 92% 0in /  0.0mm 33 W/m2
08:39 49.8 °F /  9.9 °C 47.7 °F /  8.7 °C 30in /  1016.6hPa WNW 0.9mph /  1.4km/h 7mph /  11.3km/h 92% 0in /  0.0mm 26 W/m2
08:44 49.8 °F /  9.9 °C 47.8 °F /  8.8 °C 30in /  1016.6hPa North 0.9mph /  1.4km/h 10mph /  16.1km/h 93% 0in /  0.0mm 56 W/m2
08:49 49.8 °F /  9.9 °C 47.8 °F /  8.8 °C 30in /  1016.6hPa NW 2mph /  3.2km/h 10mph /  16.1km/h 93% 0in /  0.0mm 56 W/m2
08:54 49.8 °F /  9.9 °C 47.8 °F /  8.8 °C 30in /  1016.6hPa WSW 0.9mph /  1.4km/h 4mph /  6.4km/h 93% 0in /  0.0mm 63 W/m2
08:59 50 °F /  10 °C 48 °F /  8.9 °C 30in /  1016.6hPa NW 2.9mph /  4.7km/h 7mph /  11.3km/h 93% 0in /  0.0mm 39 W/m2
09:04 50.2 °F /  10.1 °C 48 °F /  8.9 °C 30in /  1016.9hPa WSW 2mph /  3.2km/h 12mph /  19.3km/h 92% 0in /  0.0mm 84 W/m2
09:09 50.2 °F /  10.1 °C 48 °F /  8.9 °C 30in /  1016.9hPa NNW 6mph /  9.7km/h 10mph /  16.1km/h 92% 0in /  0.0mm 70 W/m2
09:14 50.4 °F /  10.2 °C 48.2 °F /  9 °C 30in /  1016.9hPa East 0.9mph /  1.4km/h 8mph /  12.9km/h 92% 0in /  0.0mm 91 W/m2
09:19 50.5 °F /  10.3 °C 48.4 °F /  9.1 °C 30in /  1016.9hPa WNW 0.9mph /  1.4km/h 11mph /  17.7km/h 92% 0in /  0.0mm 146 W/m2
09:24 50.7 °F /  10.4 °C 48.6 °F /  9.2 °C 30in /  1016.9hPa WNW 2mph /  3.2km/h 7mph /  11.3km/h 92% 0in /  0.0mm 149 W/m2
09:29 50.9 °F /  10.5 °C 48.7 °F /  9.3 °C 30in /  1016.9hPa NW 0.9mph /  1.4km/h 11mph /  17.7km/h 92% 0in /  0.0mm 153 W/m2
09:34 51.1 °F /  10.6 °C 48.6 °F /  9.2 °C 30in /  1016.9hPa SW 2.9mph /  4.7km/h 4mph /  6.4km/h 91% 0in /  0.0mm 113 W/m2
09:39 51.1 °F /  10.6 °C 48.6 °F /  9.2 °C 30in /  1016.9hPa WNW 4mph /  6.4km/h 4mph /  6.4km/h 91% 0in /  0.0mm 128 W/m2
09:44 51.1 °F /  10.6 °C 48.6 °F /  9.2 °C 30in /  1016.9hPa WNW 2mph /  3.2km/h 6mph /  9.7km/h 91% 0in /  0.0mm 158 W/m2
09:49 51.1 °F /  10.6 °C 48.6 °F /  9.2 °C 30in /  1016.9hPa NW 2.9mph /  4.7km/h 5mph /  8km/h 91% 0in /  0.0mm 105 W/m2
09:54 51.3 °F /  10.7 °C 48.7 °F /  9.3 °C 30in /  1017.3hPa West 0.9mph /  1.4km/h 6mph /  9.7km/h 91% 0in /  0.0mm 93 W/m2
09:59 51.3 °F /  10.7 °C 48.7 °F /  9.3 °C 30in /  1017.3hPa WNW 2.9mph /  4.7km/h 4mph /  6.4km/h 91% 0in /  0.0mm 79 W/m2
10:04 51.3 °F /  10.7 °C 48.7 °F /  9.3 °C 30in /  1016.9hPa West 0.9mph /  1.4km/h 6mph /  9.7km/h 91% 0in /  0.0mm 102 W/m2
10:09 51.3 °F /  10.7 °C 48.7 °F /  9.3 °C 30in /  1017.3hPa NW 2.9mph /  4.7km/h 10mph /  16.1km/h 91% 0in /  0.0mm 148 W/m2
10:14 51.4 °F /  10.8 °C 48.9 °F /  9.4 °C 30in /  1017.3hPa WSW 2mph /  3.2km/h 2mph /  3.2km/h 91% 0in /  0.0mm 128 W/m2
10:19 51.4 °F /  10.8 °C 48.9 °F /  9.4 °C 30in /  1017.3hPa NE 0.9mph /  1.4km/h 3mph /  4.8km/h 91% 0in /  0.0mm 81 W/m2
10:24 51.6 °F /  10.9 °C 48.7 °F /  9.3 °C 30in /  1017.3hPa NW 2mph /  3.2km/h 6mph /  9.7km/h 90% 0in /  0.0mm 83 W/m2
10:29 51.6 °F /  10.9 °C 48.7 °F /  9.3 °C 30in /  1017.3hPa South 4mph /  6.4km/h 5mph /  8km/h 90% 0in /  0.0mm 91 W/m2
10:34 51.8 °F /  11 °C 48.9 °F /  9.4 °C 30in /  1017.3hPa West 2.9mph /  4.7km/h 4mph /  6.4km/h 90% 0in /  0.0mm 118 W/m2
10:39 52 °F /  11.1 °C 49.1 °F /  9.5 °C 30in /  1017.3hPa ENE 2mph /  3.2km/h 3mph /  4.8km/h 90% 0in /  0.0mm 207 W/m2
10:44 52.2 °F /  11.2 °C 49.3 °F /  9.6 °C 30in /  1017.3hPa NW 4mph /  6.4km/h 7mph /  11.3km/h 90% 0in /  0.0mm 139 W/m2
10:50 52.3 °F /  11.3 °C 49.5 °F /  9.7 °C 30in /  1017.3hPa North 0.9mph /  1.4km/h 10mph /  16.1km/h 90% 0in /  0.0mm 446 W/m2
10:55 52.9 °F /  11.6 °C 50 °F /  10 °C 30.1in /  1017.6hPa WSW 4.9mph /  7.9km/h 10mph /  16.1km/h 90% 0in /  0.0mm 195 W/m2
11:00 53.1 °F /  11.7 °C 49.6 °F /  9.8 °C 30.1in /  1017.6hPa WNW 2mph /  3.2km/h 6mph /  9.7km/h 88% 0in /  0.0mm 74 W/m2
11:05 53.1 °F /  11.7 °C 49.6 °F /  9.8 °C 30.1in /  1017.6hPa West 2mph /  3.2km/h 10mph /  16.1km/h 88% 0in /  0.0mm 81 W/m2
11:10 53.1 °F /  11.7 °C 49.6 °F /  9.8 °C 30.1in /  1017.6hPa East 2.9mph /  4.7km/h 3mph /  4.8km/h 88% 0in /  0.0mm 142 W/m2
11:15 53.2 °F /  11.8 °C 49.8 °F /  9.9 °C 30.1in /  1017.6hPa Calm   5mph /  8km/h 88% 0in /  0.0mm 186 W/m2
11:20 53.2 °F /  11.8 °C 49.8 °F /  9.9 °C 30.1in /  1017.6hPa NNW 2mph /  3.2km/h 3mph /  4.8km/h 88% 0in /  0.0mm 151 W/m2
11:25 53.4 °F /  11.9 °C 49.6 °F /  9.8 °C 30.1in /  1018.0hPa West 2.9mph /  4.7km/h 8mph /  12.9km/h 87% 0in /  0.0mm 183 W/m2
11:30 53.4 °F /  11.9 °C 49.6 °F /  9.8 °C 30.1in /  1018.0hPa WNW 4mph /  6.4km/h 14mph /  22.5km/h 87% 0in /  0.0mm 332 W/m2
11:35 53.8 °F /  12.1 °C 50 °F /  10 °C 30.1in /  1018.0hPa WNW 0.9mph /  1.4km/h 8mph /  12.9km/h 87% 0in /  0.0mm 186 W/m2
11:40 54 °F /  12.2 °C 49.8 °F /  9.9 °C 30.1in /  1018.0hPa WSW 2mph /  3.2km/h 10mph /  16.1km/h 86% 0in /  0.0mm 234 W/m2
11:45 54 °F /  12.2 °C 49.8 °F /  9.9 °C 30.1in /  1018.0hPa West 4mph /  6.4km/h 6mph /  9.7km/h 86% 0in /  0.0mm 255 W/m2
11:50 54.1 °F /  12.3 °C 50 °F /  10 °C 30.1in /  1018.0hPa SW 0.9mph /  1.4km/h 12mph /  19.3km/h 86% 0in /  0.0mm 246 W/m2
11:55 54.1 °F /  12.3 °C 49.8 °F /  9.9 °C 30.1in /  1018.0hPa SW 2mph /  3.2km/h 7mph /  11.3km/h 85% 0in /  0.0mm 155 W/m2
12:00 54.1 °F /  12.3 °C 49.8 °F /  9.9 °C 30.1in /  1018.0hPa NW 2mph /  3.2km/h 12mph /  19.3km/h 85% 0in /  0.0mm 162 W/m2
12:05 54.1 °F /  12.3 °C 50 °F /  10 °C 30.1in /  1018.0hPa WNW 2mph /  3.2km/h 5mph /  8km/h 86% 0in /  0.0mm 107 W/m2
12:10 54 °F /  12.2 °C 49.6 °F /  9.8 °C 30.1in /  1018.0hPa North 6mph /  9.7km/h 11mph /  17.7km/h 85% 0in /  0.0mm 81 W/m2
12:15 54 °F /  12.2 °C 49.6 °F /  9.8 °C 30.1in /  1018.3hPa SSW 2.9mph /  4.7km/h 4mph /  6.4km/h 85% 0in /  0.0mm 102 W/m2
12:20 53.8 °F /  12.1 °C 49.5 °F /  9.7 °C 30.1in /  1018.0hPa NE 2mph /  3.2km/h 4mph /  6.4km/h 85% 0in /  0.0mm 120 W/m2
12:25 54 °F /  12.2 °C 49.6 °F /  9.8 °C 30.1in /  1018.3hPa SSW 4mph /  6.4km/h 4mph /  6.4km/h 85% 0in /  0.0mm 202 W/m2
12:30 54.1 °F /  12.3 °C 49.8 °F /  9.9 °C 30.1in /  1018.3hPa West 6mph /  9.7km/h 6mph /  9.7km/h 85% 0in /  0.0mm 153 W/m2
12:35 54.1 °F /  12.3 °C 49.5 °F /  9.7 °C 30.1in /  1018.3hPa West 6mph /  9.7km/h 9mph /  14.5km/h 84% 0in /  0.0mm 149 W/m2
12:40 54.1 °F /  12.3 °C 49.5 °F /  9.7 °C 30.1in /  1018.3hPa West 6.9mph /  11.1km/h 8mph /  12.9km/h 84% 0in /  0.0mm 118 W/m2
12:45 54.3 °F /  12.4 °C 49.6 °F /  9.8 °C 30.1in /  1018.3hPa WNW 2.9mph /  4.7km/h 9mph /  14.5km/h 84% 0in /  0.0mm 81 W/m2
12:50 54.1 °F /  12.3 °C 49.1 °F /  9.5 °C 30.1in /  1018.3hPa WSW 8.1mph /  13km/h 8mph /  12.9km/h 83% 0in /  0.0mm 132 W/m2
12:55 54.1 °F /  12.3 °C 49.1 °F /  9.5 °C 30.1in /  1018.3hPa West 10.1mph /  16.3km/h 13mph /  20.9km/h 83% 0in /  0.0mm 105 W/m2
13:00 54.1 °F /  12.3 °C 48.7 °F /  9.3 °C 30.1in /  1018.3hPa NW 8.9mph /  14.3km/h 11mph /  17.7km/h 82% 0in /  0.0mm 120 W/m2
13:05 54.1 °F /  12.3 °C 48.7 °F /  9.3 °C 30.1in /  1018.3hPa WNW 6.9mph /  11.1km/h 13mph /  20.9km/h 82% 0in /  0.0mm 176 W/m2
13:10 54.1 °F /  12.3 °C 48.7 °F /  9.3 °C 30.1in /  1018.3hPa SW 4mph /  6.4km/h 9mph /  14.5km/h 82% 0in /  0.0mm 109 W/m2
13:15 54.1 °F /  12.3 °C 49.1 °F /  9.5 °C 30.1in /  1018.6hPa WSW 4.9mph /  7.9km/h 12mph /  19.3km/h 83% 0in /  0.0mm 114 W/m2
13:20 54.1 °F /  12.3 °C 49.5 °F /  9.7 °C 30.1in /  1018.6hPa West 6mph /  9.7km/h 8mph /  12.9km/h 84% 0in /  0.0mm 120 W/m2
13:25 53.8 °F /  12.1 °C 49.1 °F /  9.5 °C 30.1in /  1018.6hPa NNW 2mph /  3.2km/h 10mph /  16.1km/h 84% 0in /  0.0mm 113 W/m2
13:30 53.6 °F /  12 °C 49.3 °F /  9.6 °C 30.1in /  1018.6hPa WNW 2mph /  3.2km/h 4mph /  6.4km/h 85% 0in /  0.0mm 125 W/m2
13:35 53.4 °F /  11.9 °C 49.3 °F /  9.6 °C 30.1in /  1018.6hPa WNW 2mph /  3.2km/h 10mph /  16.1km/h 86% 0.01in /  0.2mm 100 W/m2
13:40 53.2 °F /  11.8 °C 49.5 °F /  9.7 °C 30.1in /  1018.6hPa West 4mph /  6.4km/h 9mph /  14.5km/h 87% 0.01in /  0.2mm 98 W/m2
13:45 53.1 °F /  11.7 °C 49.3 °F /  9.6 °C 30.1in /  1018.6hPa West 2mph /  3.2km/h 4mph /  6.4km/h 87% 0.01in /  0.2mm 79 W/m2
13:50 53.1 °F /  11.7 °C 49.6 °F /  9.8 °C 30.1in /  1018.6hPa Calm   9mph /  14.5km/h 88% 0.02in /  0.5mm 98 W/m2
13:55 53.1 °F /  11.7 °C 49.6 °F /  9.8 °C 30.1in /  1018.6hPa West 2mph /  3.2km/h 3mph /  4.8km/h 88% 0.02in /  0.5mm 141 W/m2
14:00 53.1 °F /  11.7 °C 49.6 °F /  9.8 °C 30.1in /  1018.6hPa Calm   1mph /  1.6km/h 88% 0.02in /  0.5mm 160 W/m2
14:05 53.2 °F /  11.8 °C 50 °F /  10 °C 30.1in /  1018.6hPa NW 2mph /  3.2km/h 3mph /  4.8km/h 89% 0.02in /  0.5mm 135 W/m2
14:10 53.4 °F /  11.9 °C 50.2 °F /  10.1 °C 30.1in /  1018.6hPa WSW 2.9mph /  4.7km/h 5mph /  8km/h 89% 0.02in /  0.5mm 116 W/m2
14:15 53.4 °F /  11.9 °C 50.2 °F /  10.1 °C 30.1in /  1018.6hPa Calm   2mph /  3.2km/h 89% 0.02in /  0.5mm 155 W/m2
14:20 53.6 °F /  12 °C 50.4 °F /  10.2 °C 30.1in /  1018.6hPa Calm   4mph /  6.4km/h 89% 0.02in /  0.5mm 167 W/m2
14:25 53.8 °F /  12.1 °C 50.5 °F /  10.3 °C 30.1in /  1018.6hPa Calm   2mph /  3.2km/h 89% 0.02in /  0.5mm 153 W/m2
14:30 54 °F /  12.2 °C 50.7 °F /  10.4 °C 30.1in /  1018.6hPa NW 2mph /  3.2km/h 6mph /  9.7km/h 89% 0.02in /  0.5mm 185 W/m2
14:35 54.1 °F /  12.3 °C 50.7 °F /  10.4 °C 30.1in /  1018.6hPa South 0.9mph /  1.4km/h 5mph /  8km/h 88% 0.02in /  0.5mm 225 W/m2
14:40 54.1 °F /  12.3 °C 50.9 °F /  10.5 °C 30.1in /  1018.6hPa WNW 0.9mph /  1.4km/h 6mph /  9.7km/h 89% 0.02in /  0.5mm 232 W/m2
14:45 54.3 °F /  12.4 °C 50.9 °F /  10.5 °C 30.1in /  1018.6hPa NW 0.9mph /  1.4km/h 7mph /  11.3km/h 88% 0.02in /  0.5mm 149 W/m2
14:50 54.3 °F /  12.4 °C 50.9 °F /  10.5 °C 30.1in /  1018.6hPa NW 2mph /  3.2km/h 7mph /  11.3km/h 88% 0.01in /  0.2mm 139 W/m2
14:55 54.3 °F /  12.4 °C 50.9 °F /  10.5 °C 30.1in /  1018.6hPa West 2.9mph /  4.7km/h 5mph /  8km/h 88% 0.01in /  0.2mm 137 W/m2
15:00 54.1 °F /  12.3 °C 50.7 °F /  10.4 °C 30.1in /  1019.0hPa West 2.9mph /  4.7km/h 10mph /  16.1km/h 88% 0.02in /  0.5mm 97 W/m2
15:05 54 °F /  12.2 °C 50.2 °F /  10.1 °C 30.1in /  1019.0hPa West 2.9mph /  4.7km/h 9mph /  14.5km/h 87% 0.02in /  0.5mm 95 W/m2
15:10 53.4 °F /  11.9 °C 50 °F /  10 °C 30.1in /  1018.6hPa West 0.9mph /  1.4km/h 10mph /  16.1km/h 88% 0.02in /  0.5mm 183 W/m2
15:15 53.4 °F /  11.9 °C 50.5 °F /  10.3 °C 30.1in /  1019.0hPa East 2.9mph /  4.7km/h 3mph /  4.8km/h 90% 0.02in /  0.5mm 105 W/m2
15:20 53.4 °F /  11.9 °C 50.5 °F /  10.3 °C 30.1in /  1019.0hPa West 0.9mph /  1.4km/h 8mph /  12.9km/h 90% 0.03in /  0.8mm 76 W/m2
15:25 53.4 °F /  11.9 °C 50.9 °F /  10.5 °C 30.1in /  1019.0hPa WNW 2mph /  3.2km/h 7mph /  11.3km/h 91% 0.04in /  1.0mm 192 W/m2
15:30 53.8 °F /  12.1 °C 51.3 °F /  10.7 °C 30.1in /  1019.0hPa NW 2.9mph /  4.7km/h 4mph /  6.4km/h 91% 0.04in /  1.0mm 148 W/m2
15:35 53.8 °F /  12.1 °C 50.9 °F /  10.5 °C 30.1in /  1019.0hPa NNW 4mph /  6.4km/h 7mph /  11.3km/h 90% 0.04in /  1.0mm 169 W/m2
15:40 53.8 °F /  12.1 °C 50.9 °F /  10.5 °C 30.1in /  1019.0hPa NW 2mph /  3.2km/h 7mph /  11.3km/h 90% 0.04in /  1.0mm 130 W/m2
15:45 53.8 °F /  12.1 °C 50.9 °F /  10.5 °C 30.1in /  1019.3hPa WNW 6.9mph /  11.1km/h 10mph /  16.1km/h 90% 0.05in /  1.3mm 158 W/m2
15:50 53.8 °F /  12.1 °C 50.9 °F /  10.5 °C 30.1in /  1019.3hPa West 4mph /  6.4km/h 8mph /  12.9km/h 90% 0.05in /  1.3mm 100 W/m2
15:55 53.6 °F /  12 °C 50.7 °F /  10.4 °C 30.1in /  1019.3hPa WNW 2.9mph /  4.7km/h 10mph /  16.1km/h 90% 0.06in /  1.5mm 58 W/m2
16:01 53.4 °F /  11.9 °C 50.5 °F /  10.3 °C 30.1in /  1019.3hPa WNW 4.9mph /  7.9km/h 8mph /  12.9km/h 90% 0.05in /  1.3mm 135 W/m2
16:06 53.2 °F /  11.8 °C 50.7 °F /  10.4 °C 30.1in /  1019.3hPa WSW 6mph /  9.7km/h 9mph /  14.5km/h 91% 0.04in /  1.0mm 113 W/m2
16:11 53.2 °F /  11.8 °C 50.4 °F /  10.2 °C 30.1in /  1019.6hPa NW 4.9mph /  7.9km/h 10mph /  16.1km/h 90% 0.03in /  0.8mm 84 W/m2
16:16 53.1 °F /  11.7 °C 50.5 °F /  10.3 °C 30.1in /  1019.6hPa West 4mph /  6.4km/h 6mph /  9.7km/h 91% 0.03in /  0.8mm 60 W/m2
16:21 53.1 °F /  11.7 °C 50.5 °F /  10.3 °C 30.1in /  1019.6hPa WSW 2mph /  3.2km/h 7mph /  11.3km/h 91% 0.03in /  0.8mm 47 W/m2
16:26 52.9 °F /  11.6 °C 50.4 °F /  10.2 °C 30.1in /  1019.6hPa WNW 2.9mph /  4.7km/h 7mph /  11.3km/h 91% 0.02in /  0.5mm 105 W/m2
16:31 52.7 °F /  11.5 °C 50.4 °F /  10.2 °C 30.1in /  1019.6hPa WNW 2mph /  3.2km/h 6mph /  9.7km/h 92% 0.02in /  0.5mm 83 W/m2
16:36 52.7 °F /  11.5 °C 50.2 °F /  10.1 °C 30.1in /  1019.6hPa WNW 2.9mph /  4.7km/h 9mph /  14.5km/h 91% 0.02in /  0.5mm 100 W/m2
16:41 52.7 °F /  11.5 °C 50.2 °F /  10.1 °C 30.1in /  1019.6hPa WNW 4mph /  6.4km/h 6mph /  9.7km/h 91% 0.02in /  0.5mm 88 W/m2
16:46 52.5 °F /  11.4 °C 50 °F /  10 °C 30.1in /  1019.6hPa WNW 4.9mph /  7.9km/h 10mph /  16.1km/h 91% 0.02in /  0.5mm 98 W/m2
16:51 52.5 °F /  11.4 °C 50.2 °F /  10.1 °C 30.1in /  1019.6hPa South 0.9mph /  1.4km/h 8mph /  12.9km/h 92% 0.02in /  0.5mm 90 W/m2
16:56 52.5 °F /  11.4 °C 50 °F /  10 °C 30.1in /  1019.6hPa SSW 2mph /  3.2km/h 7mph /  11.3km/h 91% 0.02in /  0.5mm 86 W/m2
17:01 52.5 °F /  11.4 °C 50.2 °F /  10.1 °C 30.1in /  1019.6hPa WNW 0.9mph /  1.4km/h 4mph /  6.4km/h 92% 0.02in /  0.5mm 109 W/m2
17:06 52.5 °F /  11.4 °C 50.2 °F /  10.1 °C 30.1in /  1019.6hPa West 4mph /  6.4km/h 8mph /  12.9km/h 92% 0.02in /  0.5mm 95 W/m2
17:11 52.5 °F /  11.4 °C 50.2 °F /  10.1 °C 30.1in /  1020.0hPa West 2mph /  3.2km/h 8mph /  12.9km/h 92% 0.02in /  0.5mm 67 W/m2
17:16 52.5 °F /  11.4 °C 50.2 °F /  10.1 °C 30.1in /  1020.0hPa WNW 2.9mph /  4.7km/h 5mph /  8km/h 92% 0.02in /  0.5mm 69 W/m2
17:21 52.5 °F /  11.4 °C 50.2 °F /  10.1 °C 30.1in /  1020.0hPa West 4mph /  6.4km/h 14mph /  22.5km/h 92% 0.01in /  0.2mm 63 W/m2
17:26 52.5 °F /  11.4 °C 50.2 °F /  10.1 °C 30.1in /  1020.0hPa WSW 4mph /  6.4km/h 8mph /  12.9km/h 92% 0.01in /  0.2mm 67 W/m2
17:31 52.5 °F /  11.4 °C 50.2 °F /  10.1 °C 30.1in /  1020.0hPa WSW 2.9mph /  4.7km/h 14mph /  22.5km/h 92% 0.01in /  0.2mm 62 W/m2
17:36 52.5 °F /  11.4 °C 50.2 °F /  10.1 °C 30.1in /  1020.0hPa West 2.9mph /  4.7km/h 6mph /  9.7km/h 92% 0.01in /  0.2mm 54 W/m2
17:41 52.5 °F /  11.4 °C 50.2 °F /  10.1 °C 30.1in /  1020.0hPa WNW 2.9mph /  4.7km/h 4mph /  6.4km/h 92% 0.01in /  0.2mm 46 W/m2
17:46 52.5 °F /  11.4 °C 50.2 °F /  10.1 °C 30.1in /  1020.3hPa West 4mph /  6.4km/h 7mph /  11.3km/h 92% 0.01in /  0.2mm 47 W/m2
17:51 52.3 °F /  11.3 °C 50 °F /  10 °C 30.1in /  1020.0hPa West 0.9mph /  1.4km/h 4mph /  6.4km/h 92% 0.01in /  0.2mm 49 W/m2
17:56 52.3 °F /  11.3 °C 50 °F /  10 °C 30.1in /  1020.3hPa West 2mph /  3.2km/h 6mph /  9.7km/h 92% 0in /  0.0mm 44 W/m2
18:01 52.3 °F /  11.3 °C 50 °F /  10 °C 30.1in /  1020.3hPa West 2mph /  3.2km/h 7mph /  11.3km/h 92% 0in /  0.0mm 42 W/m2
18:06 52.3 °F /  11.3 °C 50 °F /  10 °C 30.1in /  1020.3hPa West 2.9mph /  4.7km/h 8mph /  12.9km/h 92% 0in /  0.0mm 37 W/m2
18:11 52.3 °F /  11.3 °C 50 °F /  10 °C 30.1in /  1020.3hPa WSW 2mph /  3.2km/h 4mph /  6.4km/h 92% 0in /  0.0mm 32 W/m2
18:16 52.3 °F /  11.3 °C 50 °F /  10 °C 30.1in /  1020.3hPa West 2.9mph /  4.7km/h 4mph /  6.4km/h 92% 0in /  0.0mm 33 W/m2
18:21 52.3 °F /  11.3 °C 50 °F /  10 °C 30.1in /  1020.7hPa West 2.9mph /  4.7km/h 4mph /  6.4km/h 92% 0in /  0.0mm 21 W/m2
18:26 52.2 °F /  11.2 °C 49.8 °F /  9.9 °C 30.1in /  1020.7hPa West 2.9mph /  4.7km/h 6mph /  9.7km/h 92% 0in /  0.0mm 18 W/m2
18:31 52.2 °F /  11.2 °C 49.8 °F /  9.9 °C 30.1in /  1020.7hPa NW 4.9mph /  7.9km/h 11mph /  17.7km/h 92% 0in /  0.0mm 16 W/m2
18:36 52.2 °F /  11.2 °C 49.8 °F /  9.9 °C 30.1in /  1020.7hPa WNW 2.9mph /  4.7km/h 7mph /  11.3km/h 92% 0in /  0.0mm 18 W/m2
18:41 52.2 °F /  11.2 °C 49.8 °F /  9.9 °C 30.1in /  1020.7hPa West 2mph /  3.2km/h 8mph /  12.9km/h 92% 0in /  0.0mm 14 W/m2
18:46 52.2 °F /  11.2 °C 49.8 °F /  9.9 °C 30.1in /  1020.7hPa West 2mph /  3.2km/h 7mph /  11.3km/h 92% 0in /  0.0mm 7 W/m2
18:51 52.2 °F /  11.2 °C 50.2 °F /  10.1 °C 30.2in /  1021.0hPa West 4mph /  6.4km/h 7mph /  11.3km/h 93% 0in /  0.0mm 5 W/m2
18:56 52.2 °F /  11.2 °C 50.2 °F /  10.1 °C 30.2in /  1021.0hPa WNW 6.9mph /  11.1km/h 7mph /  11.3km/h 93% 0in /  0.0mm 0 W/m2
19:01 52.2 °F /  11.2 °C 50.2 °F /  10.1 °C 30.2in /  1021.0hPa WSW 2.9mph /  4.7km/h 4mph /  6.4km/h 93% 0in /  0.0mm 0 W/m2
19:06 52.2 °F /  11.2 °C 50.2 °F /  10.1 °C 30.2in /  1021.0hPa WSW 2.9mph /  4.7km/h 6mph /  9.7km/h 93% 0in /  0.0mm 0 W/m2
19:11 52.2 °F /  11.2 °C 50.2 °F /  10.1 °C 30.2in /  1021.3hPa WSW 2.9mph /  4.7km/h 3mph /  4.8km/h 93% 0.01in /  0.2mm 0 W/m2
19:16 52 °F /  11.1 °C 50 °F /  10 °C 30.2in /  1021.3hPa SW 2.9mph /  4.7km/h 4mph /  6.4km/h 93% 0.01in /  0.2mm 0 W/m2
19:21 52 °F /  11.1 °C 50 °F /  10 °C 30.2in /  1021.3hPa WSW 4mph /  6.4km/h 7mph /  11.3km/h 93% 0.02in /  0.5mm 0 W/m2
19:26 51.8 °F /  11 °C 49.8 °F /  9.9 °C 30.2in /  1021.3hPa West 4mph /  6.4km/h 5mph /  8km/h 93% 0.02in /  0.5mm 0 W/m2
19:31 51.8 °F /  11 °C 49.8 °F /  9.9 °C 30.2in /  1021.3hPa WNW 2.9mph /  4.7km/h 4mph /  6.4km/h 93% 0.02in /  0.5mm 0 W/m2
19:36 51.8 °F /  11 °C 49.8 °F /  9.9 °C 30.2in /  1021.3hPa West 2.9mph /  4.7km/h 4mph /  6.4km/h 93% 0.02in /  0.5mm 0 W/m2
19:41 51.8 °F /  11 °C 49.8 °F /  9.9 °C 30.2in /  1021.3hPa West 6mph /  9.7km/h 8mph /  12.9km/h 93% 0.03in /  0.8mm 0 W/m2
19:46 51.8 °F /  11 °C 50.2 °F /  10.1 °C 30.2in /  1021.3hPa West 0.9mph /  1.4km/h 3mph /  4.8km/h 94% 0.03in /  0.8mm 0 W/m2
19:51 51.6 °F /  10.9 °C 50 °F /  10 °C 30.2in /  1021.7hPa WNW 2.9mph /  4.7km/h 8mph /  12.9km/h 94% 0.03in /  0.8mm 0 W/m2
19:56 51.6 °F /  10.9 °C 50 °F /  10 °C 30.2in /  1021.7hPa WNW 2mph /  3.2km/h 3mph /  4.8km/h 94% 0.03in /  0.8mm 0 W/m2
20:01 51.6 °F /  10.9 °C 50 °F /  10 °C 30.2in /  1021.7hPa West 2mph /  3.2km/h 4mph /  6.4km/h 94% 0.04in /  1.0mm 0 W/m2
20:06 51.6 °F /  10.9 °C 50 °F /  10 °C 30.2in /  1021.7hPa West 6mph /  9.7km/h 8mph /  12.9km/h 94% 0.04in /  1.0mm 0 W/m2
20:11 51.6 °F /  10.9 °C 50 °F /  10 °C 30.2in /  1021.7hPa WNW 2.9mph /  4.7km/h 3mph /  4.8km/h 94% 0.04in /  1.0mm 0 W/m2
20:16 51.6 °F /  10.9 °C 50 °F /  10 °C 30.2in /  1022.0hPa WNW 2mph /  3.2km/h 8mph /  12.9km/h 94% 0.06in /  1.5mm 0 W/m2
20:21 51.4 °F /  10.8 °C 49.8 °F /  9.9 °C 30.2in /  1022.0hPa West 0.9mph /  1.4km/h 2mph /  3.2km/h 94% 0.08in /  2.0mm 0 W/m2
20:26 51.4 °F /  10.8 °C 49.8 °F /  9.9 °C 30.2in /  1022.0hPa West 0.9mph /  1.4km/h 3mph /  4.8km/h 94% 0.09in /  2.3mm 0 W/m2
20:31 51.4 °F /  10.8 °C 49.8 °F /  9.9 °C 30.2in /  1022.4hPa WNW 2.9mph /  4.7km/h 4mph /  6.4km/h 94% 0.09in /  2.3mm 0 W/m2
20:36 51.4 °F /  10.8 °C 50 °F /  10 °C 30.2in /  1022.4hPa Calm     95% 0.09in /  2.3mm 0 W/m2
20:41 51.4 °F /  10.8 °C 50 °F /  10 °C 30.2in /  1022.4hPa West 4mph /  6.4km/h 4mph /  6.4km/h 95% 0.09in /  2.3mm 0 W/m2
20:46 51.4 °F /  10.8 °C 50 °F /  10 °C 30.2in /  1022.4hPa West 2mph /  3.2km/h 3mph /  4.8km/h 95% 0.09in /  2.3mm 0 W/m2
20:51 51.4 °F /  10.8 °C 50 °F /  10 °C 30.2in /  1022.4hPa West 2mph /  3.2km/h 3mph /  4.8km/h 95% 0.09in /  2.3mm 0 W/m2
20:56 51.3 °F /  10.7 °C 49.8 °F /  9.9 °C 30.2in /  1022.4hPa WSW 2mph /  3.2km/h 4mph /  6.4km/h 95% 0.09in /  2.3mm 0 W/m2
21:01 51.3 °F /  10.7 °C 49.8 °F /  9.9 °C 30.2in /  1022.4hPa West 4mph /  6.4km/h 8mph /  12.9km/h 95% 0.08in /  2.0mm 0 W/m2
21:06 51.4 °F /  10.8 °C 50 °F /  10 °C 30.2in /  1022.4hPa WSW 2mph /  3.2km/h 6mph /  9.7km/h 95% 0.08in /  2.0mm 0 W/m2
21:11 51.4 °F /  10.8 °C 50 °F /  10 °C 30.2in /  1022.4hPa West 2.9mph /  4.7km/h 6mph /  9.7km/h 95% 0.07in /  1.8mm 0 W/m2
21:16 51.4 °F /  10.8 °C 49.8 °F /  9.9 °C 30.2in /  1022.4hPa WNW 4mph /  6.4km/h 8mph /  12.9km/h 94% 0.05in /  1.3mm 0 W/m2
21:21 51.4 °F /  10.8 °C 49.8 °F /  9.9 °C 30.2in /  1022.7hPa West 2.9mph /  4.7km/h 6mph /  9.7km/h 94% 0.02in /  0.5mm 0 W/m2
21:26 51.6 °F /  10.9 °C 50 °F /  10 °C 30.2in /  1022.7hPa West 2mph /  3.2km/h 4mph /  6.4km/h 94% 0.01in /  0.2mm 0 W/m2
21:31 51.6 °F /  10.9 °C 50 °F /  10 °C 30.2in /  1022.7hPa West 2.9mph /  4.7km/h 4mph /  6.4km/h 94% 0.01in /  0.2mm 0 W/m2
21:36 51.4 °F /  10.8 °C 49.8 °F /  9.9 °C 30.2in /  1022.7hPa WSW 4.9mph /  7.9km/h 5mph /  8km/h 94% 0in /  0.0mm 0 W/m2
21:41 51.4 °F /  10.8 °C 49.8 °F /  9.9 °C 30.2in /  1022.7hPa WSW 4mph /  6.4km/h 6mph /  9.7km/h 94% 0in /  0.0mm 0 W/m2
21:46 51.4 °F /  10.8 °C 49.8 °F /  9.9 °C 30.2in /  1023.0hPa West 2.9mph /  4.7km/h 5mph /  8km/h 94% 0in /  0.0mm 0 W/m2
21:51 51.4 °F /  10.8 °C 49.8 °F /  9.9 °C 30.2in /  1023.0hPa WNW 0.9mph /  1.4km/h 3mph /  4.8km/h 94% 0in /  0.0mm 0 W/m2
21:56 51.3 °F /  10.7 °C 49.6 °F /  9.8 °C 30.2in /  1023.0hPa West 4mph /  6.4km/h 6mph /  9.7km/h 94% 0in /  0.0mm 0 W/m2
22:01 51.3 °F /  10.7 °C 49.6 °F /  9.8 °C 30.2in /  1023.0hPa WNW 4.9mph /  7.9km/h 6mph /  9.7km/h 94% 0in /  0.0mm 0 W/m2
22:06 51.4 °F /  10.8 °C 49.8 °F /  9.9 °C 30.2in /  1023.0hPa West 2mph /  3.2km/h 7mph /  11.3km/h 94% 0in /  0.0mm 0 W/m2
22:11 51.4 °F /  10.8 °C 49.8 °F /  9.9 °C 30.2in /  1023.0hPa WNW 2.9mph /  4.7km/h 7mph /  11.3km/h 94% 0in /  0.0mm 0 W/m2
22:16 51.4 °F /  10.8 °C 49.8 °F /  9.9 °C 30.2in /  1023.0hPa West 4mph /  6.4km/h 6mph /  9.7km/h 94% 0in /  0.0mm 0 W/m2
22:21 51.4 °F /  10.8 °C 49.8 °F /  9.9 °C 30.2in /  1023.0hPa West 4mph /  6.4km/h 9mph /  14.5km/h 94% 0in /  0.0mm 0 W/m2
22:26 51.6 °F /  10.9 °C 50 °F /  10 °C 30.2in /  1023.0hPa West 6mph /  9.7km/h 9mph /  14.5km/h 94% 0in /  0.0mm 0 W/m2
22:31 51.6 °F /  10.9 °C 50 °F /  10 °C 30.2in /  1023.0hPa West 2.9mph /  4.7km/h 7mph /  11.3km/h 94% 0in /  0.0mm 0 W/m2
22:36 51.6 °F /  10.9 °C 50 °F /  10 °C 30.2in /  1023.0hPa WSW 4mph /  6.4km/h 7mph /  11.3km/h 94% 0in /  0.0mm 0 W/m2
22:41 51.4 °F /  10.8 °C 49.8 °F /  9.9 °C 30.2in /  1023.0hPa West 6mph /  9.7km/h 6mph /  9.7km/h 94% 0in /  0.0mm 0 W/m2
22:46 51.4 °F /  10.8 °C 49.8 °F /  9.9 °C 30.2in /  1023.0hPa WNW 2.9mph /  4.7km/h 7mph /  11.3km/h 94% 0in /  0.0mm 0 W/m2
22:51 51.4 °F /  10.8 °C 49.8 °F /  9.9 °C 30.2in /  1023.0hPa West 4mph /  6.4km/h 6mph /  9.7km/h 94% 0in /  0.0mm 0 W/m2
22:56 51.4 °F /  10.8 °C 49.8 °F /  9.9 °C 30.2in /  1023.4hPa West 0.9mph /  1.4km/h 6mph /  9.7km/h 94% 0in /  0.0mm 0 W/m2
23:01 51.4 °F /  10.8 °C 49.8 °F /  9.9 °C 30.2in /  1023.4hPa West 6mph /  9.7km/h 6mph /  9.7km/h 94% 0in /  0.0mm 0 W/m2
23:06 51.4 °F /  10.8 °C 49.8 °F /  9.9 °C 30.2in /  1023.4hPa West 2mph /  3.2km/h 8mph /  12.9km/h 94% 0in /  0.0mm 0 W/m2
23:11 51.4 °F /  10.8 °C 49.8 °F /  9.9 °C 30.2in /  1023.4hPa WNW 2mph /  3.2km/h 9mph /  14.5km/h 94% 0in /  0.0mm 0 W/m2
23:16 51.4 °F /  10.8 °C 49.8 °F /  9.9 °C 30.2in /  1023.4hPa West 2.9mph /  4.7km/h 7mph /  11.3km/h 94% 0in /  0.0mm 0 W/m2
23:21 51.3 °F /  10.7 °C 49.3 °F /  9.6 °C 30.2in /  1023.4hPa West 2.9mph /  4.7km/h 6mph /  9.7km/h 93% 0in /  0.0mm 0 W/m2
23:26 51.3 °F /  10.7 °C 49.3 °F /  9.6 °C 30.2in /  1023.4hPa WSW 2.9mph /  4.7km/h 10mph /  16.1km/h 93% 0in /  0.0mm 0 W/m2
23:31 51.1 °F /  10.6 °C 49.1 °F /  9.5 °C 30.2in /  1023.4hPa West 4mph /  6.4km/h 6mph /  9.7km/h 93% 0in /  0.0mm 0 W/m2
23:36 51.1 °F /  10.6 °C 49.5 °F /  9.7 °C 30.2in /  1023.4hPa West 2mph /  3.2km/h 10mph /  16.1km/h 94% 0in /  0.0mm 0 W/m2
23:41 51.1 °F /  10.6 °C 49.5 °F /  9.7 °C 30.2in /  1023.4hPa West 6mph /  9.7km/h 8mph /  12.9km/h 94% 0in /  0.0mm 0 W/m2
23:46 51.3 °F /  10.7 °C 49.6 °F /  9.8 °C 30.2in /  1023.4hPa WSW 8.9mph /  14.3km/h 9mph /  14.5km/h 94% 0in /  0.0mm 0 W/m2
23:51 51.3 °F /  10.7 °C 49.3 °F /  9.6 °C 30.2in /  1023.4hPa West 2.9mph /  4.7km/h 8mph /  12.9km/h 93% 0in /  0.0mm 0 W/m2
23:56 51.3 °F /  10.7 °C 49.3 °F /  9.6 °C 30.2in /  1023.4hPa WNW 6.9mph /  11.1km/h 8mph /  12.9km/h 93% 0in /  0.0mm 0 W/m2
Juneau County Weather
Compliments of Weather Underground - 4 mb